Terminal Aerodrome Forecast
Issued by NWS

Home | Current Version | Previous Version | Text Only | Print | Product List | Glossary Off
Versions: 1 2 3 4 5 6 7 8 9 10 11 12 13 14

000
FTUS43 KUNR 280037 AAA
TAFGCC
TAF AMD
KGCC 280037Z 2801/2824 26015KT P6SM BKN200
     FM280300 19007KT P6SM SCT200
     FM281800 32008KT P6SM SKC
     FM282200 36010KT P6SM SKC=

USA.gov is the U.S. government's official web portal to all federal, state and local government web resources and services.